createdAt,value
2022-12-15T00:02:10.200Z,-4.72
2022-12-15T00:04:55.323Z,-4.71
2022-12-15T00:07:40.132Z,-4.60
2022-12-15T00:10:25.521Z,-4.53
2022-12-15T00:13:10.366Z,-4.65
2022-12-15T00:15:55.790Z,-4.90
2022-12-15T00:18:40.912Z,-4.73
2022-12-15T00:21:25.993Z,-4.56
2022-12-15T00:24:10.977Z,-4.94
2022-12-15T00:26:55.918Z,-5.14
2022-12-15T00:29:40.931Z,-4.71
2022-12-15T00:32:25.722Z,-4.87
2022-12-15T00:35:10.576Z,-4.59
2022-12-15T00:37:55.379Z,-4.82
2022-12-15T00:40:21.853Z,-4.59
2022-12-15T00:42:49.656Z,-4.57
2022-12-15T00:45:16.466Z,-4.46
2022-12-15T00:47:42.926Z,-4.35
2022-12-15T00:50:27.846Z,-4.66
2022-12-15T00:53:12.707Z,-4.84
2022-12-15T00:55:57.547Z,-4.80
2022-12-15T00:58:42.381Z,-5.05
2022-12-15T01:01:28.618Z,-5.08
2022-12-15T01:04:13.851Z,-4.68
2022-12-15T01:06:59.041Z,-4.92
2022-12-15T01:09:44.408Z,-5.12
2022-12-15T01:12:29.546Z,-4.84
2022-12-15T01:15:14.429Z,-4.93
2022-12-15T01:17:59.147Z,-5.13
2022-12-15T01:20:25.675Z,-5.13
2022-12-15T01:22:54.767Z,-4.75
2022-12-15T01:25:24.093Z,-4.78
2022-12-15T01:27:51.668Z,-4.65
2022-12-15T01:30:21.534Z,-4.99
2022-12-15T01:32:48.328Z,-4.96
2022-12-15T01:35:15.141Z,-5.12
2022-12-15T01:37:41.758Z,-4.99
2022-12-15T01:40:32.049Z,-4.65
2022-12-15T01:42:58.824Z,-4.97
2022-12-15T01:45:28.350Z,-5.27
2022-12-15T01:48:03.305Z,-5.21
2022-12-15T01:50:33.012Z,-5.37
2022-12-15T01:52:59.590Z,-5.49
2022-12-15T01:55:28.289Z,-5.43
2022-12-15T01:57:59.512Z,-5.46
2022-12-15T02:00:26.623Z,-5.62
2022-12-15T02:02:54.456Z,-5.26
2022-12-15T02:05:21.945Z,-5.04
2022-12-15T02:07:48.392Z,-4.96
2022-12-15T02:10:16.589Z,-4.92
2022-12-15T02:12:55.046Z,-5.09
2022-12-15T02:15:33.683Z,-5.23
2022-12-15T02:18:06.447Z,-5.68
2022-12-15T02:21:00.868Z,-5.81
2022-12-15T02:23:53.712Z,-6.15
2022-12-15T02:26:36.558Z,-6.12
2022-12-15T02:30:00.671Z,-6.15
2022-12-15T02:32:37.022Z,-6.10
2022-12-15T02:35:15.414Z,-6.10
2022-12-15T02:37:42.285Z,-6.10
2022-12-15T02:40:10.631Z,-6.06
2022-12-15T02:42:45.805Z,-5.84
2022-12-15T02:45:16.079Z,-5.67
2022-12-15T02:47:49.906Z,-6.09
2022-12-15T02:50:42.076Z,-6.00
2022-12-15T02:53:20.708Z,-5.76
2022-12-15T02:56:05.511Z,-5.63
2022-12-15T02:59:01.731Z,-5.51
2022-12-15T03:01:44.637Z,-5.68
2022-12-15T03:04:12.856Z,-6.01
2022-12-15T03:06:39.676Z,-6.22
2022-12-15T03:09:06.185Z,-6.44
2022-12-15T03:11:32.977Z,-6.46
2022-12-15T03:13:59.512Z,-6.52
2022-12-15T03:16:26.080Z,-6.48
2022-12-15T03:18:52.833Z,-6.51
2022-12-15T03:21:19.577Z,-6.37
2022-12-15T03:23:46.043Z,-6.62
2022-12-15T03:26:12.697Z,-6.59
2022-12-15T03:28:39.154Z,-6.77
2022-12-15T03:31:05.783Z,-6.76
2022-12-15T03:33:34.545Z,-6.90
2022-12-15T03:36:01.489Z,-6.90
2022-12-15T03:38:27.940Z,-6.96
2022-12-15T03:40:54.583Z,-7.06
2022-12-15T03:43:21.118Z,-7.02
2022-12-15T03:45:47.866Z,-6.87
2022-12-15T03:48:14.334Z,-6.84
2022-12-15T03:50:40.834Z,-6.89
2022-12-15T03:53:07.646Z,-7.03
2022-12-15T03:55:35.180Z,-7.04
2022-12-15T03:58:02.679Z,-6.97
2022-12-15T04:00:29.292Z,-7.26
2022-12-15T04:02:56.320Z,-7.59
2022-12-15T04:05:33.181Z,-7.49
2022-12-15T04:08:01.211Z,-7.23
2022-12-15T04:10:34.432Z,-7.22
2022-12-15T04:13:04.717Z,-7.53
2022-12-15T04:15:31.204Z,-7.71
2022-12-15T04:17:58.414Z,-7.53
2022-12-15T04:20:24.943Z,-7.60
2022-12-15T04:22:51.829Z,-7.59
2022-12-15T04:25:42.149Z,-7.81
2022-12-15T04:28:29.297Z,-7.82
2022-12-15T04:31:21.181Z,-7.88
2022-12-15T04:34:10.058Z,-7.86
2022-12-15T04:36:58.920Z,-7.78
2022-12-15T04:39:44.259Z,-7.59
2022-12-15T04:42:29.516Z,-7.62
2022-12-15T04:45:20.907Z,-7.52
2022-12-15T04:48:06.958Z,-7.17
2022-12-15T04:50:52.144Z,-7.21
2022-12-15T04:53:37.886Z,-7.07
2022-12-15T04:56:27.596Z,-6.92
2022-12-15T04:59:12.795Z,-6.97
2022-12-15T05:01:57.923Z,-7.06
2022-12-15T05:04:43.067Z,-6.98
2022-12-15T05:07:28.231Z,-6.97
2022-12-15T05:10:15.256Z,-6.89
2022-12-15T05:13:01.903Z,-7.01
2022-12-15T05:15:47.279Z,-7.02
2022-12-15T05:18:32.335Z,-7.16
2022-12-15T05:21:17.646Z,-7.29
2022-12-15T05:24:02.715Z,-7.30
2022-12-15T05:26:52.664Z,-7.79
2022-12-15T05:29:39.007Z,-8.08
2022-12-15T05:32:05.770Z,-8.16
2022-12-15T05:34:33.918Z,-7.97
2022-12-15T05:37:02.753Z,-8.24
2022-12-15T05:39:29.521Z,-8.28
2022-12-15T05:41:57.017Z,-8.12
2022-12-15T05:44:24.940Z,-8.06
2022-12-15T05:46:51.780Z,-8.27
2022-12-15T05:49:18.541Z,-8.28
2022-12-15T05:51:47.244Z,-8.33
2022-12-15T05:54:17.241Z,-8.38
2022-12-15T05:56:44.096Z,-8.38
2022-12-15T05:59:10.979Z,-8.45
2022-12-15T06:01:37.788Z,-8.61
2022-12-15T06:04:04.958Z,-8.66
2022-12-15T06:06:31.428Z,-8.43
2022-12-15T06:08:58.172Z,-8.23
2022-12-15T06:11:24.676Z,-8.12
2022-12-15T06:13:51.219Z,-8.06
2022-12-15T06:16:21.947Z,-8.06
2022-12-15T06:18:52.393Z,-8.02
2022-12-15T06:21:23.708Z,-8.11
2022-12-15T06:23:50.512Z,-8.23
2022-12-15T06:26:21.278Z,-8.57
2022-12-15T06:28:49.421Z,-8.34
2022-12-15T06:31:18.124Z,-8.18
2022-12-15T06:33:44.698Z,-8.17
2022-12-15T06:36:13.743Z,-8.39
2022-12-15T06:38:43.427Z,-8.33
2022-12-15T06:41:12.144Z,-8.34
2022-12-15T06:43:38.931Z,-8.54
2022-12-15T06:46:05.768Z,-8.80
2022-12-15T06:48:32.628Z,-8.69
2022-12-15T06:51:04.248Z,-8.87
2022-12-15T06:53:31.476Z,-9.00
2022-12-15T06:56:02.644Z,-8.79
2022-12-15T06:58:29.233Z,-8.42
2022-12-15T07:00:56.264Z,-8.42
2022-12-15T07:03:22.935Z,-8.90
2022-12-15T07:06:03.916Z,-9.01
2022-12-15T07:08:34.183Z,-9.08
2022-12-15T07:11:06.194Z,-8.81
2022-12-15T07:13:33.263Z,-8.58
2022-12-15T07:16:01.140Z,-8.61
2022-12-15T07:18:29.260Z,-7.27
2022-12-15T07:20:57.020Z,-8.19
2022-12-15T07:23:39.889Z,-8.19
2022-12-15T07:26:11.833Z,-8.29
2022-12-15T07:28:38.526Z,-8.01
2022-12-15T07:31:07.960Z,-7.91
2022-12-15T07:33:35.612Z,-7.79
2022-12-15T07:36:03.241Z,-7.69
2022-12-15T07:38:29.995Z,-7.59
2022-12-15T07:41:00.971Z,-7.53
2022-12-15T07:43:28.416Z,-7.33
2022-12-15T07:45:55.175Z,-7.36
2022-12-15T07:48:21.878Z,-7.38
2022-12-15T07:50:48.367Z,-7.33
2022-12-15T07:53:17.348Z,-7.40
2022-12-15T07:56:06.176Z,-7.33
2022-12-15T07:58:30.247Z,-7.12
2022-12-15T08:01:02.066Z,-7.09
2022-12-15T08:03:30.439Z,-6.85
2022-12-15T08:06:03.654Z,-6.47
2022-12-15T08:08:31.218Z,-6.45
2022-12-15T08:10:57.984Z,-6.22
2022-12-15T08:14:00.180Z,-5.93
2022-12-15T08:16:12.223Z,-5.84
2022-12-15T08:18:39.506Z,-6.14
2022-12-15T08:21:10.052Z,-5.93
2022-12-15T08:23:37.407Z,-6.02
2022-12-15T08:26:06.584Z,-5.98
2022-12-15T08:28:37.732Z,-5.77
2022-12-15T08:31:17.291Z,-5.44
2022-12-15T08:33:44.680Z,-5.30
2022-12-15T08:36:13.601Z,-5.51
2022-12-15T08:38:42.372Z,-5.57
2022-12-15T08:41:16.368Z,-5.41
2022-12-15T08:43:48.151Z,-5.08
2022-12-15T08:46:35.648Z,-5.50
2022-12-15T08:49:03.191Z,-5.19
2022-12-15T08:51:31.721Z,-5.02
2022-12-15T08:53:59.445Z,-4.94
2022-12-15T08:56:27.049Z,-4.83
2022-12-15T08:59:01.984Z,-4.63
2022-12-15T09:01:31.985Z,-4.90
2022-12-15T09:03:59.526Z,-4.71
2022-12-15T09:06:29.227Z,-4.67
2022-12-15T09:08:57.588Z,-4.59
2022-12-15T09:11:25.147Z,-4.35
2022-12-15T09:13:51.666Z,-4.34
2022-12-15T09:16:19.898Z,-4.61
2022-12-15T09:18:49.000Z,-4.61
2022-12-15T09:21:16.358Z,-4.43
2022-12-15T09:23:43.437Z,-4.06
2022-12-15T09:26:12.397Z,-4.38
2022-12-15T09:28:39.319Z,-4.42
2022-12-15T09:31:14.071Z,-4.84
2022-12-15T09:33:42.140Z,-4.91
2022-12-15T09:36:10.341Z,-4.84
2022-12-15T09:38:40.949Z,-4.96
2022-12-15T09:41:13.726Z,-4.06
2022-12-15T09:44:00.874Z,-4.09
2022-12-15T09:46:50.780Z,-4.08
2022-12-15T09:49:38.799Z,-3.79
2022-12-15T09:52:11.597Z,-3.65
2022-12-15T09:54:41.417Z,-3.75
2022-12-15T09:57:25.195Z,-2.79
2022-12-15T10:00:05.214Z,-1.69
2022-12-15T10:02:50.096Z,-1.38
2022-12-15T10:05:50.024Z,-1.70
2022-12-15T10:08:16.021Z,-1.38
2022-12-15T10:10:58.907Z,-0.91
2022-12-15T10:13:54.346Z,-0.56
2022-12-15T10:16:21.559Z,0.16
2022-12-15T10:19:02.205Z,0.29
2022-12-15T10:21:31.167Z,1.20
2022-12-15T10:24:10.192Z,0.59
2022-12-15T10:26:36.668Z,1.80
2022-12-15T10:29:24.756Z,1.68
2022-12-15T10:31:55.637Z,1.43
2022-12-15T10:34:28.757Z,2.06
2022-12-15T10:36:56.543Z,2.05
2022-12-15T10:39:23.838Z,1.79
2022-12-15T10:42:11.096Z,0.14
2022-12-15T10:44:40.386Z,-0.64
2022-12-15T10:47:27.421Z,-0.71
2022-12-15T10:49:55.741Z,-1.40
2022-12-15T10:52:40.340Z,-1.99
2022-12-15T10:55:31.856Z,-2.25
2022-12-15T10:58:00.856Z,-2.30
2022-12-15T11:00:31.819Z,-2.60
2022-12-15T11:02:59.196Z,-2.94
2022-12-15T11:05:26.816Z,-2.69
2022-12-15T11:08:15.010Z,-2.90
2022-12-15T11:11:12.359Z,-2.72
2022-12-15T11:13:39.831Z,-2.35
2022-12-15T11:16:18.841Z,-2.21
2022-12-15T11:18:51.226Z,-0.99
2022-12-15T11:21:26.013Z,-2.20
2022-12-15T11:24:07.105Z,-2.20
2022-12-15T11:29:54.043Z,-2.95
2022-12-15T11:32:24.543Z,-2.17
2022-12-15T11:34:51.147Z,-2.56
2022-12-15T11:37:36.232Z,-2.35
2022-12-15T11:40:21.887Z,-3.11
2022-12-15T11:42:48.805Z,-3.18
2022-12-15T11:45:41.618Z,-2.90
2022-12-15T11:48:37.132Z,-2.75
2022-12-15T11:51:14.408Z,-2.58
2022-12-15T11:53:54.290Z,-1.91
2022-12-15T11:56:50.654Z,-1.52
2022-12-15T11:59:47.974Z,-1.54
2022-12-15T12:02:49.659Z,-1.80
2022-12-15T12:05:30.003Z,-2.09
2022-12-15T12:08:11.672Z,-2.14
2022-12-15T12:11:02.997Z,-1.67
2022-12-15T12:13:50.346Z,-2.14
2022-12-15T12:16:36.375Z,-2.46
2022-12-15T12:19:09.396Z,-2.47
2022-12-15T12:21:50.794Z,-3.09
2022-12-15T12:24:30.765Z,-3.21
2022-12-15T12:27:02.098Z,-3.23
2022-12-15T12:29:31.501Z,-3.52
2022-12-15T12:32:05.882Z,-3.29
2022-12-15T12:35:30.815Z,-2.82
2022-12-15T12:38:01.170Z,-2.99
2022-12-15T12:41:07.362Z,-2.81
2022-12-15T12:43:40.773Z,-3.03
2022-12-15T12:46:19.505Z,-3.43
2022-12-15T12:48:55.993Z,-3.15
2022-12-15T12:51:27.587Z,-3.44
2022-12-15T12:53:55.555Z,-3.19
2022-12-15T12:56:41.498Z,-3.14
2022-12-15T12:59:29.820Z,-3.27
2022-12-15T13:02:14.701Z,-3.58
2022-12-15T13:04:44.347Z,-3.78
2022-12-15T13:07:31.977Z,-4.01
2022-12-15T13:10:09.113Z,-4.17
2022-12-15T13:12:53.309Z,-4.07
2022-12-15T13:15:41.602Z,-4.11
2022-12-15T13:18:15.717Z,-3.86
2022-12-15T13:20:44.042Z,-4.23
2022-12-15T13:23:16.254Z,-4.07
2022-12-15T13:25:48.540Z,-4.41
2022-12-15T13:28:24.551Z,-4.19
2022-12-15T13:31:19.176Z,-4.27
2022-12-15T13:33:54.765Z,-4.34
2022-12-15T13:36:39.581Z,-4.46
2022-12-15T13:39:14.835Z,-4.59
2022-12-15T13:44:54.941Z,-4.70
2022-12-15T13:47:30.805Z,-4.44
2022-12-15T13:50:13.400Z,-4.60
2022-12-15T13:53:17.941Z,-4.58
2022-12-15T13:55:51.081Z,-4.49
2022-12-15T13:58:19.273Z,-4.40
2022-12-15T14:00:55.269Z,-4.56
2022-12-15T14:03:22.915Z,-4.30
2022-12-15T14:05:58.803Z,-4.52
2022-12-15T14:08:28.445Z,-4.49
2022-12-15T14:10:58.027Z,-4.20
2022-12-15T14:13:35.141Z,-4.47
2022-12-15T14:16:20.121Z,-4.10
2022-12-15T14:19:04.940Z,-4.42
2022-12-15T14:21:31.409Z,-4.65
2022-12-15T14:24:28.846Z,-4.80
2022-12-15T14:26:44.418Z,-4.64
2022-12-15T14:29:12.992Z,-4.87
2022-12-15T14:31:40.554Z,-5.08
2022-12-15T14:34:14.282Z,-5.03
2022-12-15T14:36:43.034Z,-5.06
2022-12-15T14:39:24.217Z,-5.33
2022-12-15T14:41:52.428Z,-5.26
2022-12-15T14:44:31.505Z,-5.22
2022-12-15T14:47:18.872Z,-5.42
2022-12-15T14:49:46.250Z,-5.44
2022-12-15T14:52:36.679Z,-5.62
2022-12-15T14:55:27.325Z,-5.52
2022-12-15T14:57:54.524Z,-5.63
2022-12-15T15:00:29.050Z,-5.71
2022-12-15T15:03:09.172Z,-2.84
2022-12-15T15:03:18.268Z,-5.57
2022-12-15T15:05:47.737Z,-5.69
2022-12-15T15:08:19.597Z,-5.74
2022-12-15T15:10:46.357Z,-5.67
2022-12-15T15:13:22.921Z,-5.63
2022-12-15T15:16:00.805Z,-5.87
2022-12-15T15:18:29.408Z,-5.88
2022-12-15T15:21:03.279Z,-5.80
2022-12-15T15:23:30.504Z,-5.74
2022-12-15T15:26:07.379Z,-5.89
2022-12-15T15:28:42.195Z,-6.01
2022-12-15T15:31:41.018Z,-6.13
2022-12-15T15:34:09.626Z,-5.97
2022-12-15T15:36:38.551Z,-6.08
2022-12-15T15:39:13.819Z,-5.94
2022-12-15T15:41:40.781Z,-6.13
2022-12-15T15:44:15.096Z,-6.08
2022-12-15T15:46:48.303Z,-6.10
2022-12-15T15:49:18.875Z,-6.04
2022-12-15T15:51:45.471Z,-5.79
2022-12-15T15:54:15.341Z,-6.13
2022-12-15T15:56:41.860Z,-6.06
2022-12-15T15:59:13.799Z,-6.21
2022-12-15T16:01:40.758Z,-6.19
2022-12-15T16:04:07.371Z,-6.39
2022-12-15T16:06:35.125Z,-6.18
2022-12-15T16:09:02.019Z,-6.29
2022-12-15T16:11:33.037Z,-6.31
2022-12-15T16:14:01.416Z,-6.27
2022-12-15T16:16:31.841Z,-6.41
2022-12-15T16:18:58.748Z,-6.28
2022-12-15T16:21:27.664Z,-6.32
2022-12-15T16:23:55.588Z,-6.09
2022-12-15T16:26:31.163Z,-6.00
2022-12-15T16:28:58.088Z,-6.23
2022-12-15T16:31:35.451Z,-6.29
2022-12-15T16:34:06.741Z,-6.32
2022-12-15T16:36:33.438Z,-6.22
2022-12-15T16:38:59.914Z,-6.38
2022-12-15T16:41:27.680Z,-6.29
2022-12-15T16:43:54.140Z,-6.21
2022-12-15T16:46:20.731Z,-6.31
2022-12-15T16:48:47.356Z,-6.36
2022-12-15T16:51:34.388Z,-6.41
2022-12-15T16:54:01.186Z,-6.29
2022-12-15T16:56:27.670Z,-6.01
2022-12-15T16:59:15.440Z,-5.65
2022-12-15T17:01:41.438Z,-5.85
2022-12-15T17:04:08.026Z,-5.64
2022-12-15T17:06:34.919Z,-5.76
2022-12-15T17:09:01.727Z,-5.59
2022-12-15T17:11:29.183Z,-5.60
2022-12-15T17:14:00.740Z,-5.69
2022-12-15T17:16:28.503Z,-5.55
2022-12-15T17:18:54.997Z,-5.47
2022-12-15T17:21:27.853Z,-5.27
2022-12-15T17:24:03.688Z,-5.31
2022-12-15T17:26:35.324Z,-5.41
2022-12-15T17:29:23.207Z,-5.25
2022-12-15T17:31:50.056Z,-5.34
2022-12-15T17:34:27.811Z,-5.26
2022-12-15T17:36:55.322Z,-5.34
2022-12-15T17:39:22.393Z,-5.23
2022-12-15T17:41:59.863Z,-5.19
2022-12-15T17:44:36.227Z,-5.25
2022-12-15T17:47:06.415Z,-5.45
2022-12-15T17:49:36.627Z,-5.46
2022-12-15T17:52:27.783Z,-5.54
2022-12-15T17:54:54.504Z,-5.61
2022-12-15T17:57:20.984Z,-5.46
2022-12-15T17:59:48.069Z,-5.67
2022-12-15T18:02:15.082Z,-5.47
2022-12-15T18:04:42.395Z,-5.59
2022-12-15T18:07:18.412Z,-5.56
2022-12-15T18:09:45.327Z,-5.61
2022-12-15T18:12:20.879Z,-5.59
2022-12-15T18:14:47.741Z,-5.59
2022-12-15T18:17:14.719Z,-5.68
2022-12-15T18:19:41.238Z,-5.69
2022-12-15T18:22:21.927Z,-5.75
2022-12-15T18:24:49.598Z,-5.72
2022-12-15T18:27:21.583Z,-5.75
2022-12-15T18:29:48.129Z,-5.77
2022-12-15T18:32:15.257Z,-5.49
2022-12-15T18:34:41.729Z,-5.45
2022-12-15T18:37:19.999Z,-5.44
2022-12-15T18:39:46.677Z,-5.65
2022-12-15T18:42:18.930Z,-5.55
2022-12-15T18:44:48.471Z,-5.38
2022-12-15T18:47:21.387Z,-5.51
2022-12-15T18:49:48.010Z,-5.59
2022-12-15T18:52:21.431Z,-5.62
2022-12-15T18:54:49.740Z,-5.58
2022-12-15T18:57:26.910Z,-5.78
2022-12-15T18:59:56.358Z,-5.90
2022-12-15T19:02:22.937Z,-5.77
2022-12-15T19:04:49.475Z,-5.91
2022-12-15T19:07:16.247Z,-5.75
2022-12-15T19:09:42.824Z,-5.57
2022-12-15T19:12:17.907Z,-5.52
2022-12-15T19:14:55.153Z,-5.45
2022-12-15T19:17:42.147Z,-5.81
2022-12-15T19:20:37.164Z,-5.56
2022-12-15T19:23:05.260Z,-5.46
2022-12-15T19:25:32.649Z,-5.58
2022-12-15T19:28:00.312Z,-5.55
2022-12-15T19:30:29.920Z,-5.62
2022-12-15T19:32:56.871Z,-5.73
2022-12-15T19:35:24.671Z,-6.10
2022-12-15T19:37:54.954Z,-6.13
2022-12-15T19:40:27.458Z,-6.14
2022-12-15T19:42:55.457Z,-6.16
2022-12-15T19:45:28.284Z,-6.20
2022-12-15T19:47:55.385Z,-6.26
2022-12-15T19:50:36.597Z,-6.17
2022-12-15T19:53:10.276Z,-6.28
2022-12-15T19:55:36.874Z,-6.37
2022-12-15T19:58:26.907Z,-6.33
2022-12-15T20:00:56.241Z,-6.34
2022-12-15T20:03:23.498Z,-6.30
2022-12-15T20:05:51.855Z,-6.36
2022-12-15T20:08:25.348Z,-6.34
2022-12-15T20:10:53.846Z,-6.36
2022-12-15T20:13:22.287Z,-6.33
2022-12-15T20:15:48.733Z,-6.29
2022-12-15T20:18:15.360Z,-6.25
2022-12-15T20:20:45.513Z,-6.27
2022-12-15T20:23:23.507Z,-6.21
2022-12-15T20:25:49.968Z,-6.18
2022-12-15T20:28:22.291Z,-6.17
2022-12-15T20:30:48.986Z,-6.17
2022-12-15T20:33:15.887Z,-6.24
2022-12-15T20:35:44.653Z,-6.18
2022-12-15T20:38:25.865Z,-6.26
2022-12-15T20:40:52.983Z,-6.23
2022-12-15T20:43:21.169Z,-6.28
2022-12-15T20:45:54.749Z,-6.20
2022-12-15T20:48:24.768Z,-6.08
2022-12-15T20:50:51.530Z,-6.29
2022-12-15T20:53:23.789Z,-6.36
2022-12-15T20:55:52.513Z,-6.39
2022-12-15T20:58:19.555Z,-6.42
2022-12-15T21:00:48.395Z,-6.25
2022-12-15T21:03:25.811Z,-6.51
2022-12-15T21:05:55.796Z,-6.42
2022-12-15T21:08:29.578Z,-6.47
2022-12-15T21:11:01.184Z,-6.33
2022-12-15T21:13:31.331Z,-6.58
2022-12-15T21:15:58.172Z,-6.67
2022-12-15T21:21:18.786Z,-6.68
2022-12-15T21:23:45.659Z,-6.61
2022-12-15T21:26:13.297Z,-6.78
2022-12-15T21:28:39.803Z,-7.07
2022-12-15T21:31:06.305Z,-7.14
2022-12-15T21:33:32.965Z,-7.15
2022-12-15T21:36:00.554Z,-7.02
2022-12-15T21:38:32.330Z,-7.10
2022-12-15T21:41:01.893Z,-7.20
2022-12-15T21:43:31.679Z,-6.99
2022-12-15T21:46:00.279Z,-7.11
2022-12-15T21:48:58.836Z,-7.16
2022-12-15T21:51:34.388Z,-7.06
2022-12-15T21:54:01.551Z,-7.17
2022-12-15T21:56:28.196Z,-7.28
2022-12-15T21:58:56.270Z,-7.05
2022-12-15T22:01:30.767Z,-7.14
2022-12-15T22:04:01.108Z,-7.01
2022-12-15T22:06:29.535Z,-6.91
2022-12-15T22:09:00.327Z,-6.99
2022-12-15T22:11:31.609Z,-7.28
2022-12-15T22:14:02.668Z,-7.49
2022-12-15T22:16:29.808Z,-7.66
2022-12-15T22:18:58.257Z,-7.78
2022-12-15T22:21:25.195Z,-7.81
2022-12-15T22:23:52.248Z,-7.47
2022-12-15T22:26:24.450Z,-7.68
2022-12-15T22:28:51.264Z,-7.65
2022-12-15T22:31:18.720Z,-7.44
2022-12-15T22:33:45.256Z,-7.38
2022-12-15T22:36:11.973Z,-7.40
2022-12-15T22:38:38.563Z,-7.44
2022-12-15T22:41:06.723Z,-7.36
2022-12-15T22:43:37.950Z,-7.48
2022-12-15T22:46:07.645Z,-7.63
2022-12-15T22:48:37.007Z,-7.67
2022-12-15T22:51:05.579Z,-7.87
2022-12-15T22:53:34.859Z,-8.02
2022-12-15T22:56:05.972Z,-8.06
2022-12-15T22:58:36.646Z,-7.82
2022-12-15T23:01:06.480Z,-7.63
2022-12-15T23:03:33.664Z,-7.41
2022-12-15T23:06:01.987Z,-7.50
2022-12-15T23:08:29.906Z,-7.59
2022-12-15T23:11:14.967Z,-7.75
2022-12-15T23:13:41.502Z,-7.61
2022-12-15T23:16:23.385Z,-7.65
2022-12-15T23:18:55.169Z,-7.86
2022-12-15T23:21:23.885Z,-8.02
2022-12-15T23:23:50.511Z,-8.05
2022-12-15T23:26:18.611Z,-7.99
2022-12-15T23:28:45.474Z,-7.98
2022-12-15T23:31:12.150Z,-8.07
2022-12-15T23:33:38.872Z,-8.17
2022-12-15T23:36:06.204Z,-8.03
2022-12-15T23:38:32.708Z,-8.33
2022-12-15T23:40:59.218Z,-8.30
2022-12-15T23:43:27.774Z,-8.52
2022-12-15T23:46:00.237Z,-8.43
2022-12-15T23:48:35.862Z,-8.45
2022-12-15T23:51:06.981Z,-8.35
2022-12-15T23:53:34.491Z,-8.22
2022-12-15T23:56:13.383Z,-8.10
2022-12-15T23:58:41.666Z,-8.00
